Search for airport 
image banner adimage banner adimage banner ad
image banner ad

2CA6 - K&T 660 Figueroa Partners

Located in Los Angeles, United States

ICAO - 2CA6, IATA -

Data provided by Airmate  

General information

Coordinates: N34°2'58" W118°15'34"
Elevation is 629 feet MSL.
Magnetic variation is 14° East
View others Airports in California

Operational data

Special qualification required
Current time UTC:
Current local time:
METAR: KHHR 141053Z AUTO 00000KT 10SM CLR 17/13 A2990 RMK AO2 SLP125 T01670133
View NOTAMs / SUP AIP / TFR affecting this airport [VIEW]
Communications frequencies: [VIEW]

Runways:

Airport contact information

Address: Los Angeles United States

Satellite view of 2CA6